sensor_id;sensor_type;location;lat;lon;timestamp;temperature;humidity
2300;DHT22;1158;48.750;9.078;2023-11-22T00:00:58;6.30;99.90
2300;DHT22;1158;48.750;9.078;2023-11-22T00:03:25;6.40;99.90
2300;DHT22;1158;48.750;9.078;2023-11-22T00:05:52;6.30;99.90
2300;DHT22;1158;48.750;9.078;2023-11-22T00:08:18;6.40;99.90
2300;DHT22;1158;48.750;9.078;2023-11-22T00:10:47;6.40;99.90
2300;DHT22;1158;48.750;9.078;2023-11-22T00:13:13;6.30;99.90
2300;DHT22;1158;48.750;9.078;2023-11-22T00:15:40;6.30;99.90
2300;DHT22;1158;48.750;9.078;2023-11-22T00:18:07;6.20;99.90
2300;DHT22;1158;48.750;9.078;2023-11-22T00:20:34;6.00;99.90
2300;DHT22;1158;48.750;9.078;2023-11-22T00:23:02;5.80;99.90
2300;DHT22;1158;48.750;9.078;2023-11-22T00:25:29;5.70;99.90
2300;DHT22;1158;48.750;9.078;2023-11-22T00:27:57;5.50;99.90
2300;DHT22;1158;48.750;9.078;2023-11-22T00:30:24;5.40;99.90
2300;DHT22;1158;48.750;9.078;2023-11-22T00:32:51;5.30;99.90
2300;DHT22;1158;48.750;9.078;2023-11-22T00:35:18;5.30;99.90
2300;DHT22;1158;48.750;9.078;2023-11-22T00:37:45;5.20;99.90
2300;DHT22;1158;48.750;9.078;2023-11-22T00:40:12;5.10;99.90
2300;DHT22;1158;48.750;9.078;2023-11-22T00:42:39;5.00;99.90
2300;DHT22;1158;48.750;9.078;2023-11-22T00:45:10;4.90;99.90
2300;DHT22;1158;48.750;9.078;2023-11-22T00:47:37;4.80;99.90
2300;DHT22;1158;48.750;9.078;2023-11-22T00:50:05;4.70;99.90
2300;DHT22;1158;48.750;9.078;2023-11-22T00:55:00;4.50;99.90
2300;DHT22;1158;48.750;9.078;2023-11-22T00:57:27;4.40;99.90
2300;DHT22;1158;48.750;9.078;2023-11-22T00:59:55;4.40;99.90
2300;DHT22;1158;48.750;9.078;2023-11-22T01:02:23;4.30;99.90
2300;DHT22;1158;48.750;9.078;2023-11-22T01:04:50;4.30;99.90
2300;DHT22;1158;48.750;9.078;2023-11-22T01:07:16;4.20;99.90
2300;DHT22;1158;48.750;9.078;2023-11-22T01:09:43;4.10;99.90
2300;DHT22;1158;48.750;9.078;2023-11-22T01:12:10;4.20;99.90
2300;DHT22;1158;48.750;9.078;2023-11-22T01:14:37;4.10;99.90
2300;DHT22;1158;48.750;9.078;2023-11-22T01:17:04;4.10;99.90
2300;DHT22;1158;48.750;9.078;2023-11-22T01:19:32;4.10;99.90
2300;DHT22;1158;48.750;9.078;2023-11-22T01:21:59;4.00;99.90
2300;DHT22;1158;48.750;9.078;2023-11-22T01:24:26;4.00;99.90
2300;DHT22;1158;48.750;9.078;2023-11-22T01:26:54;3.90;99.90
2300;DHT22;1158;48.750;9.078;2023-11-22T01:29:20;3.90;99.90
2300;DHT22;1158;48.750;9.078;2023-11-22T01:31:47;3.90;99.90
2300;DHT22;1158;48.750;9.078;2023-11-22T01:34:14;3.80;99.90
2300;DHT22;1158;48.750;9.078;2023-11-22T01:36:49;3.80;99.90
2300;DHT22;1158;48.750;9.078;2023-11-22T01:39:19;3.80;99.90
2300;DHT22;1158;48.750;9.078;2023-11-22T01:41:46;3.80;99.90
2300;DHT22;1158;48.750;9.078;2023-11-22T01:49:09;3.60;99.90
2300;DHT22;1158;48.750;9.078;2023-11-22T01:51:37;3.50;99.90
2300;DHT22;1158;48.750;9.078;2023-11-22T01:54:07;3.50;99.90
2300;DHT22;1158;48.750;9.078;2023-11-22T01:59:04;3.30;99.90
2300;DHT22;1158;48.750;9.078;2023-11-22T02:01:31;3.30;99.90
2300;DHT22;1158;48.750;9.078;2023-11-22T02:03:58;3.20;99.90
2300;DHT22;1158;48.750;9.078;2023-11-22T02:13:47;3.00;99.90
2300;DHT22;1158;48.750;9.078;2023-11-22T02:23:39;2.80;99.90
2300;DHT22;1158;48.750;9.078;2023-11-22T02:28:33;2.70;99.90
2300;DHT22;1158;48.750;9.078;2023-11-22T02:30:59;2.70;99.90
2300;DHT22;1158;48.750;9.078;2023-11-22T02:33:26;2.60;99.90
2300;DHT22;1158;48.750;9.078;2023-11-22T02:35:53;2.60;99.90
2300;DHT22;1158;48.750;9.078;2023-11-22T02:40:48;2.60;99.90
2300;DHT22;1158;48.750;9.078;2023-11-22T02:48:10;2.40;99.90
2300;DHT22;1158;48.750;9.078;2023-11-22T02:50:37;2.40;99.90
2300;DHT22;1158;48.750;9.078;2023-11-22T02:53:04;2.40;99.90
2300;DHT22;1158;48.750;9.078;2023-11-22T02:55:31;2.40;99.90
2300;DHT22;1158;48.750;9.078;2023-11-22T02:57:59;2.30;99.90
2300;DHT22;1158;48.750;9.078;2023-11-22T03:00:26;2.30;99.90
2300;DHT22;1158;48.750;9.078;2023-11-22T03:02:53;2.30;99.90
2300;DHT22;1158;48.750;9.078;2023-11-22T03:05:21;2.20;99.90
2300;DHT22;1158;48.750;9.078;2023-11-22T03:07:48;2.30;99.90
2300;DHT22;1158;48.750;9.078;2023-11-22T03:10:16;2.20;99.90
2300;DHT22;1158;48.750;9.078;2023-11-22T03:12:43;2.10;99.90
2300;DHT22;1158;48.750;9.078;2023-11-22T03:15:11;2.10;99.90
2300;DHT22;1158;48.750;9.078;2023-11-22T03:17:38;2.10;99.90
2300;DHT22;1158;48.750;9.078;2023-11-22T03:20:06;2.10;99.90
2300;DHT22;1158;48.750;9.078;2023-11-22T03:22:36;2.10;99.90
2300;DHT22;1158;48.750;9.078;2023-11-22T03:25:03;2.00;99.90
2300;DHT22;1158;48.750;9.078;2023-11-22T03:27:30;2.00;99.90
2300;DHT22;1158;48.750;9.078;2023-11-22T03:29:57;2.00;99.90
2300;DHT22;1158;48.750;9.078;2023-11-22T03:32:25;2.00;99.90
2300;DHT22;1158;48.750;9.078;2023-11-22T03:34:53;2.00;99.90
2300;DHT22;1158;48.750;9.078;2023-11-22T03:37:19;2.00;99.90
2300;DHT22;1158;48.750;9.078;2023-11-22T03:39:46;2.00;99.90
2300;DHT22;1158;48.750;9.078;2023-11-22T03:42:14;2.00;99.90
2300;DHT22;1158;48.750;9.078;2023-11-22T03:44:42;2.00;99.90
2300;DHT22;1158;48.750;9.078;2023-11-22T03:47:10;2.00;99.90
2300;DHT22;1158;48.750;9.078;2023-11-22T03:49:39;2.00;99.90
2300;DHT22;1158;48.750;9.078;2023-11-22T03:52:05;2.00;99.90
2300;DHT22;1158;48.750;9.078;2023-11-22T03:54:33;2.00;99.90
2300;DHT22;1158;48.750;9.078;2023-11-22T03:57:00;2.00;99.90
2300;DHT22;1158;48.750;9.078;2023-11-22T03:59:27;2.00;99.90
2300;DHT22;1158;48.750;9.078;2023-11-22T04:01:53;2.00;99.90
2300;DHT22;1158;48.750;9.078;2023-11-22T04:04:20;2.00;99.90
2300;DHT22;1158;48.750;9.078;2023-11-22T04:06:48;2.00;99.90
2300;DHT22;1158;48.750;9.078;2023-11-22T04:11:43;2.00;99.90
2300;DHT22;1158;48.750;9.078;2023-11-22T04:14:10;2.00;99.90
2300;DHT22;1158;48.750;9.078;2023-11-22T04:16:37;2.00;99.90
2300;DHT22;1158;48.750;9.078;2023-11-22T04:19:03;2.00;99.90
2300;DHT22;1158;48.750;9.078;2023-11-22T04:21:30;2.00;99.90
2300;DHT22;1158;48.750;9.078;2023-11-22T04:23:58;2.00;99.90
2300;DHT22;1158;48.750;9.078;2023-11-22T04:26:25;2.00;99.90
2300;DHT22;1158;48.750;9.078;2023-11-22T04:28:52;2.10;99.90
2300;DHT22;1158;48.750;9.078;2023-11-22T04:31:18;2.00;99.90
2300;DHT22;1158;48.750;9.078;2023-11-22T04:33:45;2.10;99.90
2300;DHT22;1158;48.750;9.078;2023-11-22T04:36:12;2.00;99.90
2300;DHT22;1158;48.750;9.078;2023-11-22T04:38:38;2.10;99.90
2300;DHT22;1158;48.750;9.078;2023-11-22T04:41:06;2.00;99.90
2300;DHT22;1158;48.750;9.078;2023-11-22T04:43:33;2.00;99.90
2300;DHT22;1158;48.750;9.078;2023-11-22T04:46:00;2.10;99.90
2300;DHT22;1158;48.750;9.078;2023-11-22T04:48:27;2.10;99.90
2300;DHT22;1158;48.750;9.078;2023-11-22T04:50:53;2.10;99.90
2300;DHT22;1158;48.750;9.078;2023-11-22T04:53:20;2.10;99.90
2300;DHT22;1158;48.750;9.078;2023-11-22T04:55:47;2.10;99.90
2300;DHT22;1158;48.750;9.078;2023-11-22T04:58:16;2.00;99.90
2300;DHT22;1158;48.750;9.078;2023-11-22T05:00:42;2.00;99.90
2300;DHT22;1158;48.750;9.078;2023-11-22T05:03:10;2.00;99.90
2300;DHT22;1158;48.750;9.078;2023-11-22T05:05:38;2.00;99.90
2300;DHT22;1158;48.750;9.078;2023-11-22T05:08:05;2.00;99.90
2300;DHT22;1158;48.750;9.078;2023-11-22T05:10:31;2.00;99.90
2300;DHT22;1158;48.750;9.078;2023-11-22T05:12:58;2.00;99.90
2300;DHT22;1158;48.750;9.078;2023-11-22T05:15:27;1.90;99.90
2300;DHT22;1158;48.750;9.078;2023-11-22T05:17:54;1.80;99.90
2300;DHT22;1158;48.750;9.078;2023-11-22T05:20:21;1.90;99.90
2300;DHT22;1158;48.750;9.078;2023-11-22T05:22:48;1.80;99.90
2300;DHT22;1158;48.750;9.078;2023-11-22T05:27:42;1.90;99.90
2300;DHT22;1158;48.750;9.078;2023-11-22T05:30:09;1.80;99.90
2300;DHT22;1158;48.750;9.078;2023-11-22T05:32:38;1.80;99.90
2300;DHT22;1158;48.750;9.078;2023-11-22T05:35:05;1.80;99.90
2300;DHT22;1158;48.750;9.078;2023-11-22T05:37:35;1.80;99.90
2300;DHT22;1158;48.750;9.078;2023-11-22T05:40:02;1.80;99.90
2300;DHT22;1158;48.750;9.078;2023-11-22T05:44:58;1.70;99.90
2300;DHT22;1158;48.750;9.078;2023-11-22T05:49:53;1.70;99.90
2300;DHT22;1158;48.750;9.078;2023-11-22T05:54:49;1.80;99.90
2300;DHT22;1158;48.750;9.078;2023-11-22T05:57:15;1.80;99.90
2300;DHT22;1158;48.750;9.078;2023-11-22T05:59:42;1.90;99.90
2300;DHT22;1158;48.750;9.078;2023-11-22T06:02:09;1.80;99.90
2300;DHT22;1158;48.750;9.078;2023-11-22T06:04:35;1.70;99.90
2300;DHT22;1158;48.750;9.078;2023-11-22T06:07:04;1.80;99.90
2300;DHT22;1158;48.750;9.078;2023-11-22T06:09:31;1.80;99.90
2300;DHT22;1158;48.750;9.078;2023-11-22T06:16:53;1.60;99.90
2300;DHT22;1158;48.750;9.078;2023-11-22T06:19:20;1.70;99.90
2300;DHT22;1158;48.750;9.078;2023-11-22T06:21:46;1.70;99.90
2300;DHT22;1158;48.750;9.078;2023-11-22T06:26:42;1.60;99.90
2300;DHT22;1158;48.750;9.078;2023-11-22T06:29:11;1.60;99.90
2300;DHT22;1158;48.750;9.078;2023-11-22T06:36:32;1.50;99.90
2300;DHT22;1158;48.750;9.078;2023-11-22T06:38:59;1.60;99.90
2300;DHT22;1158;48.750;9.078;2023-11-22T06:41:27;1.60;99.90
2300;DHT22;1158;48.750;9.078;2023-11-22T06:43:54;1.60;99.90
2300;DHT22;1158;48.750;9.078;2023-11-22T06:46:21;1.60;99.90
2300;DHT22;1158;48.750;9.078;2023-11-22T06:48:48;1.60;99.90
2300;DHT22;1158;48.750;9.078;2023-11-22T06:51:15;1.60;99.90
2300;DHT22;1158;48.750;9.078;2023-11-22T06:53:43;1.60;99.90
2300;DHT22;1158;48.750;9.078;2023-11-22T06:56:10;1.50;99.90
2300;DHT22;1158;48.750;9.078;2023-11-22T06:58:38;1.50;99.90
2300;DHT22;1158;48.750;9.078;2023-11-22T07:01:06;1.50;99.90
2300;DHT22;1158;48.750;9.078;2023-11-22T07:03:33;1.50;99.90
2300;DHT22;1158;48.750;9.078;2023-11-22T07:08:27;1.50;99.90
2300;DHT22;1158;48.750;9.078;2023-11-22T07:13:22;1.60;99.90
2300;DHT22;1158;48.750;9.078;2023-11-22T07:15:51;1.50;99.90
2300;DHT22;1158;48.750;9.078;2023-11-22T07:18:19;1.40;99.90
2300;DHT22;1158;48.750;9.078;2023-11-22T07:20:49;1.40;99.90
2300;DHT22;1158;48.750;9.078;2023-11-22T07:23:16;1.40;99.90
2300;DHT22;1158;48.750;9.078;2023-11-22T07:25:45;1.30;99.90
2300;DHT22;1158;48.750;9.078;2023-11-22T07:28:12;1.20;99.90
2300;DHT22;1158;48.750;9.078;2023-11-22T07:30:39;1.20;99.90
2300;DHT22;1158;48.750;9.078;2023-11-22T07:33:08;1.20;99.90
2300;DHT22;1158;48.750;9.078;2023-11-22T07:35:36;1.20;99.90
2300;DHT22;1158;48.750;9.078;2023-11-22T07:38:04;1.10;99.90
2300;DHT22;1158;48.750;9.078;2023-11-22T07:40:31;1.10;99.90
2300;DHT22;1158;48.750;9.078;2023-11-22T07:42:57;1.10;99.90
2300;DHT22;1158;48.750;9.078;2023-11-22T07:55:20;1.10;99.90
2300;DHT22;1158;48.750;9.078;2023-11-22T07:57:48;1.10;99.90
2300;DHT22;1158;48.750;9.078;2023-11-22T08:00:17;1.10;99.90
2300;DHT22;1158;48.750;9.078;2023-11-22T08:02:45;1.10;99.90
2300;DHT22;1158;48.750;9.078;2023-11-22T08:05:11;1.10;99.90
2300;DHT22;1158;48.750;9.078;2023-11-22T08:07:42;1.00;99.90
2300;DHT22;1158;48.750;9.078;2023-11-22T08:10:11;1.00;99.90
2300;DHT22;1158;48.750;9.078;2023-11-22T08:12:45;1.10;99.90
2300;DHT22;1158;48.750;9.078;2023-11-22T08:15:13;1.10;99.90
2300;DHT22;1158;48.750;9.078;2023-11-22T08:17:40;1.20;99.90
2300;DHT22;1158;48.750;9.078;2023-11-22T08:20:07;1.20;99.90
2300;DHT22;1158;48.750;9.078;2023-11-22T08:22:37;1.10;99.90
2300;DHT22;1158;48.750;9.078;2023-11-22T08:25:07;1.10;99.90
2300;DHT22;1158;48.750;9.078;2023-11-22T08:27:38;1.10;99.90
2300;DHT22;1158;48.750;9.078;2023-11-22T08:30:06;1.10;99.90
2300;DHT22;1158;48.750;9.078;2023-11-22T08:32:39;1.10;99.90
2300;DHT22;1158;48.750;9.078;2023-11-22T08:35:07;1.20;99.90
2300;DHT22;1158;48.750;9.078;2023-11-22T08:37:34;1.20;99.90
2300;DHT22;1158;48.750;9.078;2023-11-22T08:40:06;1.10;99.90
2300;DHT22;1158;48.750;9.078;2023-11-22T08:42:33;1.20;99.90
2300;DHT22;1158;48.750;9.078;2023-11-22T08:45:01;1.20;99.90
2300;DHT22;1158;48.750;9.078;2023-11-22T08:47:28;1.20;99.90
2300;DHT22;1158;48.750;9.078;2023-11-22T08:49:55;1.40;99.90
2300;DHT22;1158;48.750;9.078;2023-11-22T08:52:23;1.40;99.90
2300;DHT22;1158;48.750;9.078;2023-11-22T08:54:50;1.50;99.90
2300;DHT22;1158;48.750;9.078;2023-11-22T08:57:18;1.50;99.90
2300;DHT22;1158;48.750;9.078;2023-11-22T08:59:45;1.50;99.90
2300;DHT22;1158;48.750;9.078;2023-11-22T09:02:13;1.60;99.90
2300;DHT22;1158;48.750;9.078;2023-11-22T09:04:40;1.70;99.90
2300;DHT22;1158;48.750;9.078;2023-11-22T09:07:07;1.50;99.90
2300;DHT22;1158;48.750;9.078;2023-11-22T09:09:35;1.30;99.90
2300;DHT22;1158;48.750;9.078;2023-11-22T09:12:03;1.30;99.90
2300;DHT22;1158;48.750;9.078;2023-11-22T09:14:31;1.50;99.90
2300;DHT22;1158;48.750;9.078;2023-11-22T09:16:58;1.50;99.90
2300;DHT22;1158;48.750;9.078;2023-11-22T09:19:26;1.50;99.90
2300;DHT22;1158;48.750;9.078;2023-11-22T09:21:53;1.50;99.90
2300;DHT22;1158;48.750;9.078;2023-11-22T09:24:21;1.60;99.90
2300;DHT22;1158;48.750;9.078;2023-11-22T09:26:47;1.60;99.90
2300;DHT22;1158;48.750;9.078;2023-11-22T09:29:14;1.60;99.90
2300;DHT22;1158;48.750;9.078;2023-11-22T09:31:42;1.40;99.90
2300;DHT22;1158;48.750;9.078;2023-11-22T09:34:11;1.50;99.90
2300;DHT22;1158;48.750;9.078;2023-11-22T09:36:40;1.60;99.90
2300;DHT22;1158;48.750;9.078;2023-11-22T09:39:07;1.70;99.90
2300;DHT22;1158;48.750;9.078;2023-11-22T09:41:34;1.60;99.90
2300;DHT22;1158;48.750;9.078;2023-11-22T09:44:01;1.70;99.90
2300;DHT22;1158;48.750;9.078;2023-11-22T09:46:29;1.70;99.90
2300;DHT22;1158;48.750;9.078;2023-11-22T09:48:59;1.90;99.90
2300;DHT22;1158;48.750;9.078;2023-11-22T09:51:29;1.80;99.90
2300;DHT22;1158;48.750;9.078;2023-11-22T09:53:58;1.90;99.90
2300;DHT22;1158;48.750;9.078;2023-11-22T09:56:30;1.90;99.90
2300;DHT22;1158;48.750;9.078;2023-11-22T09:58:59;2.00;99.90
2300;DHT22;1158;48.750;9.078;2023-11-22T10:01:27;1.90;99.90
2300;DHT22;1158;48.750;9.078;2023-11-22T10:03:59;1.90;99.90
2300;DHT22;1158;48.750;9.078;2023-11-22T10:06:26;1.70;99.90
2300;DHT22;1158;48.750;9.078;2023-11-22T10:08:56;1.60;99.90
2300;DHT22;1158;48.750;9.078;2023-11-22T10:11:22;1.50;99.90
2300;DHT22;1158;48.750;9.078;2023-11-22T10:13:50;1.50;99.90
2300;DHT22;1158;48.750;9.078;2023-11-22T10:16:18;1.60;99.90
2300;DHT22;1158;48.750;9.078;2023-11-22T10:18:47;1.60;99.90
2300;DHT22;1158;48.750;9.078;2023-11-22T10:21:22;1.70;99.90
2300;DHT22;1158;48.750;9.078;2023-11-22T10:23:49;1.80;99.90
2300;DHT22;1158;48.750;9.078;2023-11-22T10:26:18;1.80;99.90
2300;DHT22;1158;48.750;9.078;2023-11-22T10:28:44;1.40;99.90
2300;DHT22;1158;48.750;9.078;2023-11-22T10:31:11;1.50;99.90
2300;DHT22;1158;48.750;9.078;2023-11-22T10:33:42;1.60;99.90
2300;DHT22;1158;48.750;9.078;2023-11-22T10:36:09;1.70;99.90
2300;DHT22;1158;48.750;9.078;2023-11-22T10:38:39;1.70;99.90
2300;DHT22;1158;48.750;9.078;2023-11-22T10:41:07;1.90;99.90
2300;DHT22;1158;48.750;9.078;2023-11-22T10:43:35;2.00;99.90
2300;DHT22;1158;48.750;9.078;2023-11-22T10:46:02;2.00;99.90
2300;DHT22;1158;48.750;9.078;2023-11-22T10:48:30;2.10;99.90
2300;DHT22;1158;48.750;9.078;2023-11-22T10:51:00;2.20;99.90
2300;DHT22;1158;48.750;9.078;2023-11-22T10:53:32;2.20;99.90
2300;DHT22;1158;48.750;9.078;2023-11-22T10:56:11;2.20;99.90
2300;DHT22;1158;48.750;9.078;2023-11-22T10:58:42;2.30;99.90
2300;DHT22;1158;48.750;9.078;2023-11-22T11:01:14;2.30;99.90
2300;DHT22;1158;48.750;9.078;2023-11-22T11:03:45;2.40;99.90
2300;DHT22;1158;48.750;9.078;2023-11-22T11:06:16;2.50;99.90
2300;DHT22;1158;48.750;9.078;2023-11-22T11:08:46;2.70;99.90
2300;DHT22;1158;48.750;9.078;2023-11-22T11:11:17;2.60;99.90
2300;DHT22;1158;48.750;9.078;2023-11-22T11:13:45;2.50;99.90
2300;DHT22;1158;48.750;9.078;2023-11-22T11:16:13;2.10;99.90
2300;DHT22;1158;48.750;9.078;2023-11-22T11:18:41;2.30;99.90
2300;DHT22;1158;48.750;9.078;2023-11-22T11:21:09;2.50;99.90
2300;DHT22;1158;48.750;9.078;2023-11-22T11:23:38;2.50;99.90
2300;DHT22;1158;48.750;9.078;2023-11-22T11:26:13;2.50;99.90
2300;DHT22;1158;48.750;9.078;2023-11-22T11:28:44;2.50;99.90
2300;DHT22;1158;48.750;9.078;2023-11-22T11:31:11;2.60;99.90
2300;DHT22;1158;48.750;9.078;2023-11-22T11:33:53;2.50;99.90
2300;DHT22;1158;48.750;9.078;2023-11-22T11:36:22;2.60;99.90
2300;DHT22;1158;48.750;9.078;2023-11-22T11:38:51;2.70;99.90
2300;DHT22;1158;48.750;9.078;2023-11-22T11:41:18;2.50;99.90
2300;DHT22;1158;48.750;9.078;2023-11-22T11:43:48;2.50;99.90
2300;DHT22;1158;48.750;9.078;2023-11-22T11:46:15;2.50;99.90
2300;DHT22;1158;48.750;9.078;2023-11-22T11:48:43;2.70;99.90
2300;DHT22;1158;48.750;9.078;2023-11-22T11:51:13;2.80;99.90
2300;DHT22;1158;48.750;9.078;2023-11-22T11:53:40;2.60;99.90
2300;DHT22;1158;48.750;9.078;2023-11-22T11:56:08;2.50;99.90
2300;DHT22;1158;48.750;9.078;2023-11-22T11:58:35;2.40;99.90
2300;DHT22;1158;48.750;9.078;2023-11-22T12:01:04;2.30;99.90
2300;DHT22;1158;48.750;9.078;2023-11-22T12:03:32;2.40;99.90
2300;DHT22;1158;48.750;9.078;2023-11-22T12:05:59;2.40;99.90
2300;DHT22;1158;48.750;9.078;2023-11-22T12:08:26;2.50;99.90
2300;DHT22;1158;48.750;9.078;2023-11-22T12:10:56;2.40;99.90
2300;DHT22;1158;48.750;9.078;2023-11-22T12:13:24;2.30;99.90
2300;DHT22;1158;48.750;9.078;2023-11-22T12:15:52;2.40;99.90
2300;DHT22;1158;48.750;9.078;2023-11-22T12:18:21;2.40;99.90
2300;DHT22;1158;48.750;9.078;2023-11-22T12:20:55;2.30;99.90
2300;DHT22;1158;48.750;9.078;2023-11-22T12:23:23;2.30;99.90
2300;DHT22;1158;48.750;9.078;2023-11-22T12:25:54;2.10;99.90
2300;DHT22;1158;48.750;9.078;2023-11-22T12:28:22;2.10;99.90
2300;DHT22;1158;48.750;9.078;2023-11-22T12:30:49;2.00;99.90
2300;DHT22;1158;48.750;9.078;2023-11-22T12:33:16;1.90;99.90
2300;DHT22;1158;48.750;9.078;2023-11-22T12:35:46;1.90;99.90
2300;DHT22;1158;48.750;9.078;2023-11-22T12:38:14;2.10;99.90
2300;DHT22;1158;48.750;9.078;2023-11-22T12:40:45;2.10;99.90
2300;DHT22;1158;48.750;9.078;2023-11-22T12:43:13;2.10;99.90
2300;DHT22;1158;48.750;9.078;2023-11-22T12:45:40;2.20;99.90
2300;DHT22;1158;48.750;9.078;2023-11-22T12:48:22;2.00;99.90
2300;DHT22;1158;48.750;9.078;2023-11-22T12:50:51;2.10;99.90
2300;DHT22;1158;48.750;9.078;2023-11-22T12:53:19;1.90;99.90
2300;DHT22;1158;48.750;9.078;2023-11-22T12:55:48;1.70;99.90
2300;DHT22;1158;48.750;9.078;2023-11-22T12:58:15;1.80;99.90
2300;DHT22;1158;48.750;9.078;2023-11-22T13:00:44;1.90;99.90
2300;DHT22;1158;48.750;9.078;2023-11-22T13:03:11;2.00;99.90
2300;DHT22;1158;48.750;9.078;2023-11-22T13:05:38;2.00;99.90
2300;DHT22;1158;48.750;9.078;2023-11-22T13:08:06;2.10;99.90
2300;DHT22;1158;48.750;9.078;2023-11-22T13:10:36;1.90;99.90
2300;DHT22;1158;48.750;9.078;2023-11-22T13:13:03;1.90;99.90
2300;DHT22;1158;48.750;9.078;2023-11-22T13:15:30;1.90;99.90
2300;DHT22;1158;48.750;9.078;2023-11-22T13:17:57;1.90;99.90
2300;DHT22;1158;48.750;9.078;2023-11-22T13:20:25;2.00;99.90
2300;DHT22;1158;48.750;9.078;2023-11-22T13:22:52;2.10;99.90
2300;DHT22;1158;48.750;9.078;2023-11-22T13:25:20;2.00;99.90
2300;DHT22;1158;48.750;9.078;2023-11-22T13:27:49;1.80;99.90
2300;DHT22;1158;48.750;9.078;2023-11-22T13:30:17;1.90;99.90
2300;DHT22;1158;48.750;9.078;2023-11-22T13:32:46;1.90;99.90
2300;DHT22;1158;48.750;9.078;2023-11-22T13:35:13;2.00;99.90
2300;DHT22;1158;48.750;9.078;2023-11-22T13:37:42;2.00;99.90
2300;DHT22;1158;48.750;9.078;2023-11-22T13:40:11;2.10;99.90
2300;DHT22;1158;48.750;9.078;2023-11-22T13:42:42;2.00;99.90
2300;DHT22;1158;48.750;9.078;2023-11-22T13:45:10;2.10;99.90
2300;DHT22;1158;48.750;9.078;2023-11-22T13:47:41;2.00;99.90
2300;DHT22;1158;48.750;9.078;2023-11-22T13:50:10;2.00;99.90
2300;DHT22;1158;48.750;9.078;2023-11-22T13:52:36;1.90;99.90
2300;DHT22;1158;48.750;9.078;2023-11-22T13:55:04;2.00;99.90
2300;DHT22;1158;48.750;9.078;2023-11-22T13:57:35;1.90;99.90
2300;DHT22;1158;48.750;9.078;2023-11-22T14:00:04;1.70;99.90
2300;DHT22;1158;48.750;9.078;2023-11-22T14:02:34;1.80;99.90
2300;DHT22;1158;48.750;9.078;2023-11-22T14:05:02;1.80;99.90
2300;DHT22;1158;48.750;9.078;2023-11-22T14:07:33;1.80;99.90
2300;DHT22;1158;48.750;9.078;2023-11-22T14:10:00;1.80;99.90
2300;DHT22;1158;48.750;9.078;2023-11-22T14:12:28;1.80;99.90
2300;DHT22;1158;48.750;9.078;2023-11-22T14:14:55;1.80;99.90
2300;DHT22;1158;48.750;9.078;2023-11-22T14:17:23;1.70;99.90
2300;DHT22;1158;48.750;9.078;2023-11-22T14:19:51;1.70;99.90
2300;DHT22;1158;48.750;9.078;2023-11-22T14:22:18;1.80;99.90
2300;DHT22;1158;48.750;9.078;2023-11-22T14:24:46;1.70;99.90
2300;DHT22;1158;48.750;9.078;2023-11-22T14:27:13;1.70;99.90
2300;DHT22;1158;48.750;9.078;2023-11-22T14:29:39;1.70;99.90
2300;DHT22;1158;48.750;9.078;2023-11-22T14:32:08;1.60;99.90
2300;DHT22;1158;48.750;9.078;2023-11-22T14:34:36;1.60;99.90
2300;DHT22;1158;48.750;9.078;2023-11-22T14:37:04;1.70;99.90
2300;DHT22;1158;48.750;9.078;2023-11-22T14:39:31;1.80;99.90
2300;DHT22;1158;48.750;9.078;2023-11-22T14:41:59;1.80;99.90
2300;DHT22;1158;48.750;9.078;2023-11-22T14:44:26;1.70;99.90
2300;DHT22;1158;48.750;9.078;2023-11-22T14:46:53;1.70;99.90
2300;DHT22;1158;48.750;9.078;2023-11-22T14:49:20;1.70;99.90
2300;DHT22;1158;48.750;9.078;2023-11-22T14:51:48;1.70;99.90
2300;DHT22;1158;48.750;9.078;2023-11-22T14:54:15;1.80;99.90
2300;DHT22;1158;48.750;9.078;2023-11-22T14:56:42;1.70;99.90
2300;DHT22;1158;48.750;9.078;2023-11-22T14:59:10;1.70;99.90
2300;DHT22;1158;48.750;9.078;2023-11-22T15:01:38;1.70;99.90
2300;DHT22;1158;48.750;9.078;2023-11-22T15:04:06;1.70;99.90
2300;DHT22;1158;48.750;9.078;2023-11-22T15:06:35;1.70;99.90
2300;DHT22;1158;48.750;9.078;2023-11-22T15:09:03;1.70;99.90
2300;DHT22;1158;48.750;9.078;2023-11-22T15:11:35;1.60;99.90
2300;DHT22;1158;48.750;9.078;2023-11-22T15:14:02;1.60;99.90
2300;DHT22;1158;48.750;9.078;2023-11-22T15:16:29;1.60;99.90
2300;DHT22;1158;48.750;9.078;2023-11-22T15:18:56;1.60;99.90
2300;DHT22;1158;48.750;9.078;2023-11-22T15:21:25;1.50;99.90
2300;DHT22;1158;48.750;9.078;2023-11-22T15:23:52;1.50;99.90
2300;DHT22;1158;48.750;9.078;2023-11-22T15:26:22;1.50;99.90
2300;DHT22;1158;48.750;9.078;2023-11-22T15:28:49;1.50;99.90
2300;DHT22;1158;48.750;9.078;2023-11-22T15:31:16;1.50;99.90
2300;DHT22;1158;48.750;9.078;2023-11-22T15:33:44;1.50;99.90
2300;DHT22;1158;48.750;9.078;2023-11-22T15:36:11;1.40;99.90
2300;DHT22;1158;48.750;9.078;2023-11-22T15:38:38;1.40;99.90
2300;DHT22;1158;48.750;9.078;2023-11-22T15:41:04;1.40;99.90
2300;DHT22;1158;48.750;9.078;2023-11-22T15:43:34;1.40;99.90
2300;DHT22;1158;48.750;9.078;2023-11-22T15:46:01;1.30;99.90
2300;DHT22;1158;48.750;9.078;2023-11-22T15:48:27;1.40;99.90
2300;DHT22;1158;48.750;9.078;2023-11-22T15:50:56;1.40;99.90
2300;DHT22;1158;48.750;9.078;2023-11-22T15:53:22;1.40;99.90
2300;DHT22;1158;48.750;9.078;2023-11-22T15:55:49;1.70;99.90
2300;DHT22;1158;48.750;9.078;2023-11-22T15:58:16;1.60;99.90
2300;DHT22;1158;48.750;9.078;2023-11-22T16:00:44;1.50;99.90
2300;DHT22;1158;48.750;9.078;2023-11-22T16:03:10;1.50;99.90
2300;DHT22;1158;48.750;9.078;2023-11-22T16:05:43;1.60;99.90
2300;DHT22;1158;48.750;9.078;2023-11-22T16:08:10;1.50;99.90
2300;DHT22;1158;48.750;9.078;2023-11-22T16:10:37;1.90;99.90
2300;DHT22;1158;48.750;9.078;2023-11-22T16:13:04;1.70;99.90
2300;DHT22;1158;48.750;9.078;2023-11-22T16:15:32;1.50;99.90
2300;DHT22;1158;48.750;9.078;2023-11-22T16:18:00;1.40;99.90
2300;DHT22;1158;48.750;9.078;2023-11-22T16:20:26;1.40;99.90
2300;DHT22;1158;48.750;9.078;2023-11-22T16:22:53;3.10;99.90
2300;DHT22;1158;48.750;9.078;2023-11-22T16:25:20;3.00;99.90
2300;DHT22;1158;48.750;9.078;2023-11-22T16:27:48;2.50;99.90
2300;DHT22;1158;48.750;9.078;2023-11-22T16:30:16;2.20;99.90
2300;DHT22;1158;48.750;9.078;2023-11-22T16:32:43;1.90;99.90
2300;DHT22;1158;48.750;9.078;2023-11-22T16:35:11;1.70;99.90
2300;DHT22;1158;48.750;9.078;2023-11-22T16:37:38;1.50;99.90
2300;DHT22;1158;48.750;9.078;2023-11-22T16:40:07;1.40;99.90
2300;DHT22;1158;48.750;9.078;2023-11-22T16:42:34;1.20;99.90
2300;DHT22;1158;48.750;9.078;2023-11-22T16:45:01;1.20;99.90
2300;DHT22;1158;48.750;9.078;2023-11-22T16:47:28;1.20;99.90
2300;DHT22;1158;48.750;9.078;2023-11-22T16:49:55;1.20;99.90
2300;DHT22;1158;48.750;9.078;2023-11-22T16:52:23;1.20;99.90
2300;DHT22;1158;48.750;9.078;2023-11-22T16:54:51;1.20;99.90
2300;DHT22;1158;48.750;9.078;2023-11-22T16:57:18;1.20;99.90
2300;DHT22;1158;48.750;9.078;2023-11-22T16:59:45;1.20;99.90
2300;DHT22;1158;48.750;9.078;2023-11-22T17:02:12;1.20;99.90
2300;DHT22;1158;48.750;9.078;2023-11-22T17:04:43;1.20;99.90
2300;DHT22;1158;48.750;9.078;2023-11-22T17:07:10;1.20;99.90
2300;DHT22;1158;48.750;9.078;2023-11-22T17:09:39;1.10;99.90
2300;DHT22;1158;48.750;9.078;2023-11-22T17:12:06;1.10;99.90
2300;DHT22;1158;48.750;9.078;2023-11-22T17:14:34;1.10;99.90
2300;DHT22;1158;48.750;9.078;2023-11-22T17:17:01;1.20;99.90
2300;DHT22;1158;48.750;9.078;2023-11-22T17:19:28;1.10;99.90
2300;DHT22;1158;48.750;9.078;2023-11-22T17:21:55;1.10;99.90
2300;DHT22;1158;48.750;9.078;2023-11-22T17:24:22;1.10;99.90
2300;DHT22;1158;48.750;9.078;2023-11-22T17:26:50;1.10;99.90
2300;DHT22;1158;48.750;9.078;2023-11-22T17:29:18;1.20;99.90
2300;DHT22;1158;48.750;9.078;2023-11-22T17:31:46;1.20;99.90
2300;DHT22;1158;48.750;9.078;2023-11-22T17:34:13;1.20;99.90